Saint Anthony, Canada
Current Conditions -  °F | °C
As of 12:00 AM on Saturday 25 Oct 2014 (Local Time) from CYAY Reporting Station
Overcast Overcast  
Wind Chill: 26°   Ceiling: 1200
Heat Index: 37°   Visibility: 9mi
Dew Point: 34°   Wind: 23mph
Humidity: 87%   Direction: 40°NE
Pressure: 29.89"   Gusts: 29mph
Location:  51.48°N, 55.81°W
Report Text: CYAY 250200Z AUTO 04020G25KT 9SM OVC012 03/01 A2989 RMK PRESFR SLP125
Loading
Personal Weather Stations






























Interactive Weather Map New forecast layout! Learn more

10-Day Weather Forecast

Advertisements
Track Severe Weather on mobile